| time (UTC) | temp C | wind direction | speed KPH | gust KPH | rain 1hr cm | rain 24hr cm | rain mn cm | humidity % | barometer mb |
| 20260502200132 | -17 | 225 | 0.0 | 0.0 | 0.00 | 0.00 | 0.00 | 1020.4 | |
| 20260502195235 | -17 | 225 | 0.0 | 0.0 | 0.00 | 0.00 | 0.00 | 1020.3 | |
| 20260502194339 | -17 | 225 | 0.0 | 0.0 | 0.00 | 0.00 | 0.00 | 1020.2 | |
| 20260502193444 | -17 | 225 | 0.0 | 0.0 | 0.00 | 0.00 | 0.00 | 1020.1 | |
| 20260502192549 | -17 | 225 | 0.0 | 0.0 | 0.00 | 0.00 | 0.00 | 1020.0 | |
| 20260502191653 | -17 | 225 | 0.0 | 0.0 | 0.00 | 0.00 | 0.00 | 1019.9 | |
| 20260502190753 | -17 | 225 | 0.0 | 0.0 | 0.00 | 0.00 | 0.00 | 1019.8 | |
| 20260502185858 | -17 | 225 | 0.0 | 3.2 | 0.00 | 0.00 | 0.00 | 1019.7 | |
| 20260502185002 | -17 | 225 | 0.0 | 1.6 | 0.00 | 0.00 | 0.00 | 1019.3 | |
| 20260502184103 | -17 | 225 | 0.0 | 0.0 | 0.00 | 0.00 | 0.00 | 1019.1 | |
| 20260502183207 | -17 | 225 | 0.0 | 0.0 | 0.00 | 0.00 | 0.00 | 1018.8 | |
| 20260502182307 | -17 | 225 | 0.0 | 1.6 | 0.00 | 0.00 | 0.00 | 1018.6 | |
| 20260502181412 | -17 | 225 | 0.0 | 3.2 | 0.00 | 0.00 | 0.00 | 1018.5 | |
| 20260502180517 | -17 | 225 | 0.0 | 1.6 | 0.00 | 0.00 | 0.00 | 1018.2 | |
| 20260502170250 | -17 | 203 | 6.4 | 11.3 | 0.00 | 0.00 | 0.00 | 1016.9 | |
| 20260502163605 | -17 | 225 | 4.8 | 12.9 | 0.00 | 0.00 | 0.00 | 1016.9 | |
| 20260502162638 | -17 | 180 | 6.4 | 14.5 | 0.00 | 0.00 | 0.00 | 1017.0 | |
| 20260502161745 | -17 | 180 | 8.0 | 12.9 | 0.00 | 0.00 | 0.00 | 1017.1 | |
| 20260502160857 | -17 | 180 | 9.7 | 9.7 | 0.00 | 0.00 | 0.00 | 1017.2 | |
| 20260502151521 | -17 | 180 | 11.3 | 14.5 | 0.00 | 0.00 | 0.00 | 1017.7 | |
| 20260502150628 | -17 | 135 | 9.7 | 11.3 | 0.00 | 0.00 | 0.00 | 1017.7 | |
| 20260502130133 | -17 | 45 | 1.6 | 6.4 | 0.00 | 0.00 | 0.00 | 1019.0 | |
| 20260502123450 | -17 | 180 | 8.0 | 19.3 | 0.00 | 0.00 | 0.00 | 1019.4 | |
| 20260502122556 | -17 | 203 | 8.0 | 16.1 | 0.00 | 0.00 | 0.00 | 1019.6 | |
| 20260502121702 | -17 | 180 | 14.5 | 14.5 | 0.00 | 0.00 | 0.00 | 1019.8 | |
| 20260502120804 | -17 | 0 | 1.6 | 6.4 | 0.00 | 0.00 | 0.00 | 1019.7 | |
| 20260502115910 | -17 | 225 | 0.0 | 19.3 | 0.00 | 0.00 | 0.00 | 1019.7 | |
| 20260502115016 | -17 | 180 | 8.0 | 19.3 | 0.00 | 0.00 | 0.00 | 1019.9 | |
| 20260502114122 | -17 | 203 | 17.7 | 25.7 | 0.00 | 0.00 | 0.00 | 1020.4 | |
| 20260502113228 | -17 | 180 | 11.3 | 12.9 | 0.00 | 0.00 | 0.00 | 1020.5 | |
| 20260502112333 | -17 | 90 | 6.4 | 16.1 | 0.00 | 0.00 | 0.00 | 1020.5 | |
| 20260502111438 | -17 | 180 | 11.3 | 16.1 | 0.00 | 0.00 | 0.00 | 1020.7 | |
| 20260502110543 | -17 | 45 | 9.7 | 12.9 | 0.00 | 0.00 | 0.00 | 1020.9 | |
| 20260502105647 | -17 | 90 | 1.6 | 11.3 | 0.00 | 0.00 | 0.00 | 1021.0 | |
| 20260502104752 | -17 | 135 | 9.7 | 17.7 | 0.00 | 0.00 | 0.00 | 1021.1 | |
| 20260502103853 | -17 | 225 | 1.6 | 6.4 | 0.00 | 0.00 | 0.00 | 1021.1 | |
| 20260502102959 | -17 | 270 | 1.6 | 9.7 | 0.00 | 0.00 | 0.00 | 1021.3 | |
| 20260502102105 | -17 | 225 | 0.0 | 14.5 | 0.00 | 0.00 | 0.00 | 1021.3 | |
| 20260502101207 | -17 | 180 | 14.5 | 19.3 | 0.00 | 0.00 | 0.00 | 1021.5 | |
| 20260502100311 | -17 | 180 | 12.9 | 14.5 | 0.00 | 0.00 | 0.00 | 1021.7 | |
| 20260502090939 | -17 | 180 | 4.8 | 12.9 | 0.00 | 0.00 | 0.00 | 1022.4 | |
| 20260502071338 | -17 | 158 | 4.8 | 11.3 | 0.00 | 0.00 | 0.00 | 1023.3 | |
| 20260502070444 | -17 | 180 | 4.8 | 8.0 | 0.00 | 0.00 | 0.00 | 1023.4 | |
| 20260502065549 | -17 | 225 | 3.2 | 4.8 | 0.00 | 0.00 | 0.00 | 1023.7 | |
| 20260502064653 | -17 | 0 | 1.6 | 3.2 | 0.00 | 0.00 | 0.00 | 1023.9 | |
| 20260502063759 | -17 | 0 | 0.0 | 3.2 | 0.00 | 0.00 | 0.00 | 1024.0 | |
| 20260502062905 | -17 | 0 | 0.0 | 3.2 | 0.00 | 0.00 | 0.00 | 1024.5 | |
| 20260502062006 | -17 | 0 | 0.0 | 1.6 | 0.00 | 0.00 | 0.00 | 1024.8 | |
| 20260502061109 | -17 | 0 | 1.6 | 1.6 | 0.00 | 0.00 | 0.00 | 1025.1 | |
| 20260502060209 | -17 | 0 | 0.0 | 1.6 | 0.00 | 0.00 | 0.00 | 1025.3 | |
| 20260502055314 | -17 | 0 | 0.0 | 1.6 | 0.00 | 0.00 | 0.00 | 1025.6 | |
| 20260502054421 | -17 | 0 | 0.0 | 0.0 | 0.00 | 0.00 | 0.00 | 1025.9 | |
| 20260502053527 | -17 | 0 | 0.0 | 1.6 | 0.00 | 0.00 | 0.00 | 1026.1 | |
| 20260502052634 | -17 | 0 | 0.0 | 0.0 | 0.00 | 0.00 | 0.00 | 1026.3 | |
| 20260502051739 | -17 | 0 | 0.0 | 0.0 | 0.00 | 0.00 | 0.00 | 1026.4 | |
| 20260502050842 | -17 | 0 | 0.0 | 0.0 | 0.00 | 0.00 | 0.00 | 1026.6 | |
| 20260502045947 | -17 | 0 | 0.0 | 0.0 | 0.00 | 0.00 | 0.00 | 1026.7 | |
| 20260502045052 | -17 | 0 | 0.0 | 0.0 | 0.00 | 0.00 | 0.00 | 1026.7 | |
| 20260502044159 | -17 | 0 | 0.0 | 0.0 | 0.00 | 0.00 | 0.00 | 1027.4 | |
| 20260502043305 | -17 | 0 | 0.0 | 1.6 | 0.00 | 0.00 | 0.00 | 1027.4 | |
| 20260502042410 | -17 | 0 | 0.0 | 0.0 | 0.00 | 0.00 | 0.00 | 1027.5 | |
| 20260502041516 | -17 | 0 | 0.0 | 0.0 | 0.00 | 0.00 | 0.00 | 1027.6 | |
| 20260502040619 | -17 | 0 | 0.0 | 0.0 | 0.00 | 0.00 | 0.00 | 1027.8 | |
| 20260502035724 | -17 | 0 | 0.0 | 0.0 | 0.00 | 0.00 | 0.00 | 1027.9 | |
| 20260502034827 | -17 | 0 | 0.0 | 0.0 | 0.00 | 0.00 | 0.00 | 1027.9 | |
| 20260502033933 | -17 | 0 | 0.0 | 0.0 | 0.00 | 0.00 | 0.00 | 1027.9 | |
| 20260502033037 | -17 | 0 | 0.0 | 1.6 | 0.00 | 0.00 | 0.00 | 1028.0 | |
| 20260502032142 | -17 | 0 | 1.6 | 1.6 | 0.00 | 0.00 | 0.00 | 1028.0 | |
| 20260502031248 | -17 | 0 | 0.0 | 3.2 | 0.00 | 0.00 | 0.00 | 1027.9 | |
| 20260502030351 | -17 | 0 | 3.2 | 3.2 | 0.00 | 0.00 | 0.00 | 1027.8 | |
| 20260502025457 | -17 | 0 | 0.0 | 0.0 | 0.00 | 0.00 | 0.00 | 1027.8 | |
| 20260502024602 | -17 | 0 | 0.0 | 1.6 | 0.00 | 0.00 | 0.00 | 1027.8 | |
| 20260502023707 | -17 | 0 | 0.0 | 0.0 | 0.00 | 0.00 | 0.00 | 1027.8 | |
| 20260502022812 | -17 | 0 | 0.0 | 0.0 | 0.00 | 0.00 | 0.00 | 1028.0 | |
| 20260502021918 | -17 | 0 | 0.0 | 0.0 | 0.00 | 0.00 | 0.00 | 1027.9 | |
| 20260502021024 | -17 | 0 | 0.0 | 0.0 | 0.00 | 0.00 | 0.00 | 1028.0 | |
| 20260502020124 | -17 | 0 | 0.0 | 0.0 | 0.00 | 0.00 | 0.00 | 1028.0 | |
| 20260502015223 | -17 | 0 | 0.0 | 1.6 | 0.00 | 0.00 | 0.00 | 1027.9 | |
| 20260502014328 | -17 | 0 | 0.0 | 0.0 | 0.00 | 0.00 | 0.00 | 1027.8 | |
| 20260502013432 | -17 | 0 | 0.0 | 0.0 | 0.00 | 0.00 | 0.00 | 1027.9 | |
| 20260502012537 | -17 | 0 | 0.0 | 0.0 | 0.00 | 0.00 | 0.00 | 1028.0 | |
| 20260502011642 | -17 | 0 | 0.0 | 0.0 | 0.00 | 0.00 | 0.00 | 1027.9 | |
| 20260502010746 | -17 | 0 | 0.0 | 0.0 | 0.00 | 0.00 | 0.00 | 1027.9 | |
| 20260502005853 | -17 | 0 | 0.0 | 0.0 | 0.00 | 0.00 | 0.00 | 1027.8 | |
| 20260502004959 | -17 | 0 | 0.0 | 0.0 | 0.00 | 0.00 | 0.00 | 1027.8 | |
| 20260502004103 | -17 | 0 | 0.0 | 0.0 | 0.00 | 0.00 | 0.00 | 1027.9 | |
| 20260502003208 | -17 | 0 | 0.0 | 0.0 | 0.00 | 0.00 | 0.00 | 1027.9 | |
| 20260502002314 | -17 | 0 | 0.0 | 3.2 | 0.00 | 0.00 | 0.00 | 1027.8 | |
| 20260502001420 | -17 | 0 | 0.0 | 0.0 | 0.00 | 0.00 | 0.00 | 1027.8 | |
| 20260502000525 | -17 | 0 | 0.0 | 0.0 | 0.00 | 0.00 | 0.00 | 1027.8 | |
| 20260501235631 | -17 | 0 | 0.0 | 0.0 | 0.00 | 0.00 | 0.00 | 1027.7 | |
| 20260501234736 | -17 | 0 | 0.0 | 0.0 | 0.00 | 0.00 | 0.00 | 1027.8 | |
| 20260501233840 | -17 | 0 | 0.0 | 0.0 | 0.00 | 0.00 | 0.00 | 1027.8 | |
| 20260501232945 | -17 | 0 | 0.0 | 0.0 | 0.00 | 0.00 | 0.00 | 1027.9 | |
| 20260501232050 | -17 | 0 | 0.0 | 1.6 | 0.00 | 0.00 | 0.00 | 1027.8 | |
| 20260501231157 | -17 | 0 | 0.0 | 1.6 | 0.00 | 0.00 | 0.00 | 1027.8 | |
| 20260501230301 | -17 | 0 | 0.0 | 0.0 | 0.00 | 0.00 | 0.00 | 1027.8 | |
| 20260501225406 | -17 | 0 | 0.0 | 0.0 | 0.00 | 0.00 | 0.00 | 1027.8 | |
| 20260501224509 | -17 | 0 | 0.0 | 0.0 | 0.00 | 0.00 | 0.00 | 1027.8 | |
| 20260501223614 | -17 | 0 | 0.0 | 0.0 | 0.00 | 0.00 | 0.00 | 1027.7 | |
| 20260501222719 | -17 | 0 | 0.0 | 0.0 | 0.00 | 0.00 | 0.00 | 1027.9 | |
| 20260501221821 | -17 | 0 | 0.0 | 0.0 | 0.00 | 0.00 | 0.00 | 1027.7 | |
| 20260501220926 | -17 | 0 | 0.0 | 4.8 | 0.00 | 0.00 | 0.00 | 1027.8 | |
| 20260501220031 | -17 | 0 | 0.0 | 3.2 | 0.00 | 0.00 | 0.00 | 1027.7 | |
| 20260501215135 | -17 | 0 | 0.0 | 0.0 | 0.00 | 0.00 | 0.00 | 1027.5 | |
| 20260501214241 | -17 | 0 | 0.0 | 0.0 | 0.00 | 0.00 | 0.00 | 1027.5 | |
| 20260501213345 | -17 | 0 | 0.0 | 0.0 | 0.00 | 0.00 | 0.00 | 1027.6 | |
| 20260501212451 | -17 | 0 | 0.0 | 3.2 | 0.00 | 0.00 | 0.00 | 1027.6 | |
| 20260501211553 | -17 | 0 | 1.6 | 3.2 | 0.00 | 0.00 | 0.00 | 1027.3 | |
| 20260501210658 | -17 | 0 | 3.2 | 3.2 | 0.00 | 0.00 | 0.00 | 1027.2 | |
| 20260501205759 | -17 | 0 | 0.0 | 3.2 | 0.00 | 0.00 | 0.00 | 1027.1 | |
| 20260501204905 | -17 | 0 | 0.0 | 0.0 | 0.00 | 0.00 | 0.00 | 1027.0 | |
| 20260501204008 | -17 | 0 | 0.0 | 0.0 | 0.00 | 0.00 | 0.00 | 1027.2 | |
| 20260501203111 | -17 | 0 | 0.0 | 0.0 | 0.00 | 0.00 | 0.00 | 1027.0 | |
| 20260501202211 | -17 | 0 | 0.0 | 0.0 | 0.00 | 0.00 | 0.00 | 1027.0 | |
| 20260501201315 | -17 | 0 | 0.0 | 0.0 | 0.00 | 0.00 | 0.00 | 1026.9 | |
| 20260501200414 | -17 | 0 | 0.0 | 1.6 | 0.00 | 0.00 | 0.00 | 1026.7 |